createdAt,value
2017-03-12T00:00:58.175Z,1011.58
2017-03-12T00:01:58.231Z,1011.54
2017-03-12T00:02:58.235Z,1011.56
2017-03-12T00:03:58.191Z,1011.57
2017-03-12T00:04:58.200Z,1011.57
2017-03-12T00:05:58.253Z,1011.55
2017-03-12T00:06:58.210Z,1011.55
2017-03-12T00:07:58.215Z,1011.57
2017-03-12T00:08:58.221Z,1011.57
2017-03-12T00:09:58.227Z,1011.5
2017-03-12T00:10:58.232Z,1011.55
2017-03-12T00:11:58.239Z,1011.5
2017-03-12T00:12:58.245Z,1011.5
2017-03-12T00:14:58.256Z,1011.45
2017-03-12T00:15:58.262Z,1011.45
2017-03-12T00:16:58.267Z,1011.43
2017-03-12T00:17:58.324Z,1011.42
2017-03-12T00:18:58.328Z,1011.4
2017-03-12T00:19:58.285Z,1011.37
2017-03-12T00:20:58.340Z,1011.4
2017-03-12T00:21:58.346Z,1011.31
2017-03-12T00:22:58.353Z,1011.38
2017-03-12T00:23:58.309Z,1011.39
2017-03-12T00:24:58.315Z,1011.4
2017-03-12T00:25:58.320Z,1011.4
2017-03-12T00:26:58.325Z,1011.35
2017-03-12T00:27:58.332Z,1011.36
2017-03-12T00:28:58.389Z,1011.37
2017-03-12T00:29:58.345Z,1011.37
2017-03-12T00:30:58.350Z,1011.35
2017-03-12T00:31:58.356Z,1011.34
2017-03-12T00:32:58.411Z,1011.35
2017-03-12T00:33:58.368Z,1011.32
2017-03-12T00:34:58.373Z,1011.31
2017-03-12T00:35:58.429Z,1011.28
2017-03-12T00:36:58.435Z,1011.24
2017-03-12T00:37:58.441Z,1011.29
2017-03-12T00:38:58.446Z,1011.25
2017-03-12T00:39:58.453Z,1011.25
2017-03-12T00:40:58.407Z,1011.2
2017-03-12T00:41:58.413Z,1011.19
2017-03-12T00:42:58.419Z,1011.16
2017-03-12T00:43:58.475Z,1011.18
2017-03-12T00:44:58.482Z,1011.18
2017-03-12T00:45:58.438Z,1011.16
2017-03-12T00:46:58.444Z,1011.23
2017-03-12T00:47:58.448Z,1011.17
2017-03-12T00:48:58.505Z,1011.2
2017-03-12T00:49:58.511Z,1011.22
2017-03-12T00:50:58.473Z,1011.18
2017-03-12T00:51:58.522Z,1011.21
2017-03-12T00:52:58.526Z,1011.2
2017-03-12T00:53:58.484Z,1011.19
2017-03-12T00:54:58.488Z,1011.19
2017-03-12T00:55:58.501Z,1011.2
2017-03-12T00:56:58.501Z,1011.2
2017-03-12T00:57:58.508Z,1011.2
2017-03-12T00:58:58.513Z,1011.16
2017-03-12T00:59:58.519Z,1011.15
2017-03-12T01:00:58.574Z,1011.15
2017-03-12T01:01:58.529Z,1011.17
2017-03-12T01:02:58.535Z,1011.13
2017-03-12T01:03:58.542Z,1011.16
2017-03-12T01:04:58.598Z,1011.15
2017-03-12T01:05:58.553Z,1011.16
2017-03-12T01:06:58.611Z,1011.16
2017-03-12T01:07:58.565Z,1011.15
2017-03-12T01:08:58.569Z,1011.15
2017-03-12T01:09:58.626Z,1011.17
2017-03-12T01:10:58.633Z,1011.17
2017-03-12T01:11:58.589Z,1011.13
2017-03-12T01:12:58.643Z,1011.13
2017-03-12T01:14:00.500Z,1011.13
2017-03-12T01:14:58.605Z,1011.11
2017-03-12T01:15:58.611Z,1011.11
2017-03-12T01:16:58.616Z,1011.12
2017-03-12T01:17:58.673Z,1011.1
2017-03-12T01:18:58.679Z,1011.11
2017-03-12T01:19:58.685Z,1011.1
2017-03-12T01:20:58.691Z,1011.1
2017-03-12T01:21:58.697Z,1011.09
2017-03-12T01:22:58.702Z,1011.11
2017-03-12T01:23:58.657Z,1011.1
2017-03-12T01:24:58.664Z,1011.09
2017-03-12T01:25:58.668Z,1011.05
2017-03-12T01:26:58.677Z,1011.07
2017-03-12T01:27:58.681Z,1011.06
2017-03-12T01:28:58.688Z,1011.04
2017-03-12T01:29:58.693Z,1011.05
2017-03-12T01:30:58.701Z,1011.03
2017-03-12T01:31:58.703Z,1011.06
2017-03-12T01:32:58.710Z,1011.03
2017-03-12T01:33:58.716Z,1011.05
2017-03-12T01:34:58.721Z,1011
2017-03-12T01:35:58.728Z,1011.01
2017-03-12T01:36:58.734Z,1011
2017-03-12T01:37:58.740Z,1011.01
2017-03-12T01:38:58.746Z,1011.02
2017-03-12T01:39:58.752Z,1011.01
2017-03-12T01:40:58.806Z,1010.94
2017-03-12T01:41:58.764Z,1010.97
2017-03-12T01:42:58.769Z,1010.97
2017-03-12T01:44:58.780Z,1011.02
2017-03-12T01:45:58.835Z,1011.01
2017-03-12T01:46:58.792Z,1011
2017-03-12T01:47:58.798Z,1011
2017-03-12T01:48:58.803Z,1011.03
2017-03-12T01:49:58.808Z,1010.99
2017-03-12T01:50:58.814Z,1011.04
2017-03-12T01:51:58.820Z,1011
2017-03-12T01:52:58.877Z,1011.03
2017-03-12T01:53:58.884Z,1011
2017-03-12T01:54:58.888Z,1011.03
2017-03-12T01:55:58.844Z,1011.02
2017-03-12T01:56:58.899Z,1011.02
2017-03-12T01:57:58.907Z,1011
2017-03-12T01:58:58.913Z,1011.05
2017-03-12T01:59:58.868Z,1011.05
2017-03-12T02:00:58.873Z,1011.01
2017-03-12T02:01:58.879Z,1011.02
2017-03-12T02:02:58.882Z,1010.98
2017-03-12T02:03:58.890Z,1010.98
2017-03-12T02:04:58.897Z,1010.96
2017-03-12T02:05:58.903Z,1010.97
2017-03-12T02:06:58.909Z,1010.93
2017-03-12T02:07:58.915Z,1010.95
2017-03-12T02:08:58.920Z,1010.93
2017-03-12T02:09:58.979Z,1010.94
2017-03-12T02:10:58.934Z,1010.93
2017-03-12T02:11:58.937Z,1010.93
2017-03-12T02:12:58.944Z,1010.9
2017-03-12T02:13:58.949Z,1010.9
2017-03-12T02:14:58.956Z,1010.88
2017-03-12T02:15:58.962Z,1010.85
2017-03-12T02:16:58.966Z,1010.83
2017-03-12T02:17:58.974Z,1010.88
2017-03-12T02:18:59.029Z,1010.86
2017-03-12T02:19:59.037Z,1010.83
2017-03-12T02:20:58.990Z,1010.79
2017-03-12T02:21:58.996Z,1010.82
2017-03-12T02:22:59.002Z,1010.82
2017-03-12T02:23:59.009Z,1010.81
2017-03-12T02:24:59.063Z,1010.78
2017-03-12T02:25:59.070Z,1010.8
2017-03-12T02:26:59.026Z,1010.83
2017-03-12T02:27:59.081Z,1010.83
2017-03-12T02:28:59.088Z,1010.79
2017-03-12T02:29:59.042Z,1010.81
2017-03-12T02:30:59.049Z,1010.79
2017-03-12T02:31:59.055Z,1010.82
2017-03-12T02:32:59.061Z,1010.8
2017-03-12T02:33:59.116Z,1010.77
2017-03-12T02:34:59.123Z,1010.79
2017-03-12T02:35:59.078Z,1010.78
2017-03-12T02:36:59.084Z,1010.74
2017-03-12T02:37:59.090Z,1010.73
2017-03-12T02:38:59.097Z,1010.74
2017-03-12T02:39:59.104Z,1010.76
2017-03-12T02:40:59.159Z,1010.72
2017-03-12T02:41:59.113Z,1010.78
2017-03-12T02:42:59.121Z,1010.71
2017-03-12T02:43:59.177Z,1010.73
2017-03-12T02:44:59.182Z,1010.71
2017-03-12T02:45:59.137Z,1010.72
2017-03-12T02:46:59.144Z,1010.72
2017-03-12T02:47:59.148Z,1010.71
2017-03-12T02:48:59.155Z,1010.71
2017-03-12T02:49:59.211Z,1010.71
2017-03-12T02:50:59.218Z,1010.7
2017-03-12T02:51:59.173Z,1010.72
2017-03-12T02:52:59.229Z,1010.68
2017-03-12T02:53:59.185Z,1010.68
2017-03-12T02:54:59.241Z,1010.7
2017-03-12T02:55:59.347Z,1010.68
2017-03-12T02:56:59.252Z,1010.65
2017-03-12T02:57:59.209Z,1010.71
2017-03-12T02:58:59.914Z,1010.68
2017-03-12T02:59:59.221Z,1010.7
2017-03-12T03:00:59.228Z,1010.66
2017-03-12T03:01:59.232Z,1010.7
2017-03-12T03:02:59.238Z,1010.66
2017-03-12T03:03:59.245Z,1010.69
2017-03-12T03:04:59.251Z,1010.7
2017-03-12T03:05:59.257Z,1010.65
2017-03-12T03:06:59.364Z,1010.68
2017-03-12T03:07:59.269Z,1010.67
2017-03-12T03:08:59.323Z,1010.67
2017-03-12T03:09:59.328Z,1010.7
2017-03-12T03:10:59.286Z,1010.66
2017-03-12T03:11:59.291Z,1010.69
2017-03-12T03:12:59.297Z,1010.7
2017-03-12T03:13:59.302Z,1010.69
2017-03-12T03:14:59.358Z,1010.7
2017-03-12T03:15:59.315Z,1010.67
2017-03-12T03:16:59.321Z,1010.69
2017-03-12T03:17:59.326Z,1010.68
2017-03-12T03:18:59.332Z,1010.64
2017-03-12T03:19:59.337Z,1010.65
2017-03-12T03:20:59.343Z,1010.67
2017-03-12T03:21:59.350Z,1010.67
2017-03-12T03:22:59.356Z,1010.6
2017-03-12T03:23:59.362Z,1010.64
2017-03-12T03:24:59.417Z,1010.65
2017-03-12T03:25:59.373Z,1010.67
2017-03-12T03:26:59.431Z,1010.66
2017-03-12T03:27:59.387Z,1010.63
2017-03-12T03:28:59.441Z,1010.63
2017-03-12T03:29:59.397Z,1010.58
2017-03-12T03:30:59.405Z,1010.58
2017-03-12T03:31:59.410Z,1010.6
2017-03-12T03:32:59.415Z,1010.62
2017-03-12T03:33:59.423Z,1010.6
2017-03-12T03:34:59.429Z,1010.61
2017-03-12T03:35:59.433Z,1010.63
2017-03-12T03:36:59.440Z,1010.61
2017-03-12T03:37:59.496Z,1010.62
2017-03-12T03:38:59.449Z,1010.6
2017-03-12T03:39:59.508Z,1010.57
2017-03-12T03:40:59.515Z,1010.57
2017-03-12T03:41:59.475Z,1010.54
2017-03-12T03:42:59.475Z,1010.5
2017-03-12T03:43:59.531Z,1010.51
2017-03-12T03:44:59.537Z,1010.52
2017-03-12T03:45:59.493Z,1010.45
2017-03-12T03:46:59.500Z,1010.44
2017-03-12T03:47:59.506Z,1010.46
2017-03-12T03:48:59.515Z,1010.45
2017-03-12T03:49:59.518Z,1010.47
2017-03-12T03:50:59.524Z,1010.42
2017-03-12T03:51:59.531Z,1010.47
2017-03-12T03:52:59.536Z,1010.47
2017-03-12T03:53:59.543Z,1010.45
2017-03-12T03:54:59.548Z,1010.44
2017-03-12T03:55:59.555Z,1010.48
2017-03-12T03:56:59.610Z,1010.47
2017-03-12T03:57:59.566Z,1010.48
2017-03-12T03:59:00.072Z,1010.46
2017-03-12T03:59:59.627Z,1010.45
2017-03-12T04:00:59.585Z,1010.45
2017-03-12T04:01:59.591Z,1010.44
2017-03-12T04:02:59.596Z,1010.46
2017-03-12T04:03:59.652Z,1010.41
2017-03-12T04:04:59.657Z,1010.43
2017-03-12T04:05:59.615Z,1010.45
2017-03-12T04:06:59.620Z,1010.46
2017-03-12T04:07:59.628Z,1010.41
2017-03-12T04:08:59.633Z,1010.41
2017-03-12T04:09:59.638Z,1010.42
2017-03-12T04:10:59.644Z,1010.44
2017-03-12T04:11:59.699Z,1010.44
2017-03-12T04:12:59.705Z,1010.4
2017-03-12T04:14:59.719Z,1010.38
2017-03-12T04:15:59.724Z,1010.43
2017-03-12T04:16:59.731Z,1010.36
2017-03-12T04:17:59.686Z,1010.38
2017-03-12T04:18:59.742Z,1010.39
2017-03-12T04:19:59.698Z,1010.35
2017-03-12T04:20:59.704Z,1010.4
2017-03-12T04:21:59.712Z,1010.42
2017-03-12T04:22:59.717Z,1010.36
2017-03-12T04:23:59.721Z,1010.35
2017-03-12T04:24:59.728Z,1010.36
2017-03-12T04:25:59.734Z,1010.37
2017-03-12T04:26:59.741Z,1010.33
2017-03-12T04:27:59.747Z,1010.35
2017-03-12T04:28:59.753Z,1010.31
2017-03-12T04:29:59.759Z,1010.32
2017-03-12T04:30:59.817Z,1010.27
2017-03-12T04:31:59.820Z,1010.26
2017-03-12T04:32:59.827Z,1010.28
2017-03-12T04:33:59.832Z,1010.27
2017-03-12T04:34:59.789Z,1010.28
2017-03-12T04:35:59.795Z,1010.27
2017-03-12T04:36:59.800Z,1010.26
2017-03-12T04:37:59.807Z,1010.28
2017-03-12T04:38:59.815Z,1010.25
2017-03-12T04:39:59.818Z,1010.28
2017-03-12T04:40:59.826Z,1010.27
2017-03-12T04:41:59.831Z,1010.31
2017-03-12T04:42:59.836Z,1010.3
2017-03-12T04:44:59.848Z,1010.33
2017-03-12T04:45:59.853Z,1010.28
2017-03-12T04:46:59.860Z,1010.29
2017-03-12T04:47:59.866Z,1010.28
2017-03-12T04:48:59.922Z,1010.29
2017-03-12T04:49:59.885Z,1010.25
2017-03-12T04:50:59.891Z,1010.27
2017-03-12T04:51:59.891Z,1010.24
2017-03-12T04:52:59.901Z,1010.23
2017-03-12T04:53:59.953Z,1010.24
2017-03-12T04:54:59.909Z,1010.21
2017-03-12T04:55:59.915Z,1010.21
2017-03-12T04:56:59.920Z,1010.18
2017-03-12T04:57:59.978Z,1010.22
2017-03-12T04:58:59.934Z,1010.22
2017-03-12T04:59:59.937Z,1010.23
2017-03-12T05:00:59.944Z,1010.23
2017-03-12T05:02:00.002Z,1010.24
2017-03-12T05:02:59.957Z,1010.21
2017-03-12T05:04:00.014Z,1010.19
2017-03-12T05:04:59.970Z,1010.18
2017-03-12T05:06:00.026Z,1010.18
2017-03-12T05:06:59.981Z,1010.14
2017-03-12T05:07:59.987Z,1010.13
2017-03-12T05:08:59.993Z,1010.17
2017-03-12T05:09:59.999Z,1010.1
2017-03-12T05:11:00.004Z,1010.13
2017-03-12T05:12:00.012Z,1010.12
2017-03-12T05:13:00.018Z,1010.09
2017-03-12T05:14:01.377Z,1010.08
2017-03-12T05:15:00.030Z,1010.07
2017-03-12T05:16:00.037Z,1010.09
2017-03-12T05:17:00.093Z,1010.1
2017-03-12T05:18:00.049Z,1010.1
2017-03-12T05:19:00.054Z,1010.1
2017-03-12T05:20:00.061Z,1010.1
2017-03-12T05:21:00.068Z,1010.11
2017-03-12T05:22:00.071Z,1010.1
2017-03-12T05:23:00.078Z,1010.1
2017-03-12T05:24:00.084Z,1010.08
2017-03-12T05:25:00.090Z,1010.05
2017-03-12T05:26:00.146Z,1010.07
2017-03-12T05:27:00.102Z,1010.03
2017-03-12T05:28:00.109Z,1010.05
2017-03-12T05:29:00.115Z,1010
2017-03-12T05:30:00.121Z,1010.01
2017-03-12T05:31:00.428Z,1010.04
2017-03-12T05:32:00.134Z,1010.04
2017-03-12T05:33:00.138Z,1010.05
2017-03-12T05:34:00.146Z,1010.04
2017-03-12T05:35:00.152Z,1010.05
2017-03-12T05:36:00.207Z,1010.07
2017-03-12T05:37:00.165Z,1010.08
2017-03-12T05:38:00.220Z,1010.07
2017-03-12T05:39:00.176Z,1010.11
2017-03-12T05:40:00.182Z,1010.08
2017-03-12T05:41:00.187Z,1010.13
2017-03-12T05:42:00.194Z,1010.11
2017-03-12T05:43:00.201Z,1010.09
2017-03-12T05:45:00.260Z,1010.12
2017-03-12T05:46:00.517Z,1010.09
2017-03-12T05:47:00.274Z,1010.11
2017-03-12T05:48:00.229Z,1010.15
2017-03-12T05:49:00.286Z,1010.15
2017-03-12T05:50:00.292Z,1010.1
2017-03-12T05:51:00.297Z,1010.11
2017-03-12T05:52:00.252Z,1010.13
2017-03-12T05:53:00.310Z,1010.13
2017-03-12T05:54:00.316Z,1010.1
2017-03-12T05:55:00.273Z,1010.09
2017-03-12T05:56:00.278Z,1010.1
2017-03-12T05:57:00.285Z,1010.09
2017-03-12T05:58:00.389Z,1010.12
2017-03-12T05:59:00.296Z,1010.08
2017-03-12T06:00:00.352Z,1010.07
2017-03-12T06:01:00.358Z,1010.09
2017-03-12T06:02:00.314Z,1010.07
2017-03-12T06:03:00.371Z,1010.07
2017-03-12T06:04:00.327Z,1010.06
2017-03-12T06:05:00.383Z,1010.09
2017-03-12T06:06:00.339Z,1010.11
2017-03-12T06:07:00.396Z,1010.1
2017-03-12T06:08:00.401Z,1010.07
2017-03-12T06:09:00.409Z,1010.04
2017-03-12T06:10:00.413Z,1010.08
2017-03-12T06:11:00.419Z,1010.07
2017-03-12T06:12:00.376Z,1010.07
2017-03-12T06:13:00.381Z,1010.09
2017-03-12T06:14:00.387Z,1010.06
2017-03-12T06:15:00.416Z,1010.08
2017-03-12T06:16:00.400Z,1010.09
2017-03-12T06:17:00.405Z,1010.07
2017-03-12T06:18:00.461Z,1010.1
2017-03-12T06:19:00.468Z,1010.08
2017-03-12T06:20:00.425Z,1010.09
2017-03-12T06:21:00.479Z,1010.08
2017-03-12T06:22:00.437Z,1010.1
2017-03-12T06:23:00.444Z,1010.13
2017-03-12T06:24:00.499Z,1010.12
2017-03-12T06:25:00.505Z,1010.17
2017-03-12T06:26:00.462Z,1010.09
2017-03-12T06:27:00.467Z,1010.15
2017-03-12T06:28:00.473Z,1010.15
2017-03-12T06:29:00.481Z,1010.15
2017-03-12T06:30:00.487Z,1010.14
2017-03-12T06:31:00.542Z,1010.13
2017-03-12T06:32:00.499Z,1010.15
2017-03-12T06:33:00.510Z,1010.19
2017-03-12T06:34:00.561Z,1010.22
2017-03-12T06:35:00.519Z,1010.14
2017-03-12T06:36:00.526Z,1010.22
2017-03-12T06:37:00.580Z,1010.17
2017-03-12T06:38:00.588Z,1010.14
2017-03-12T06:39:00.593Z,1010.17
2017-03-12T06:40:00.549Z,1010.21
2017-03-12T06:41:00.556Z,1010.22
2017-03-12T06:42:00.563Z,1010.2
2017-03-12T06:43:00.619Z,1010.16
2017-03-12T06:44:00.628Z,1010.18
2017-03-12T06:45:00.583Z,1010.17
2017-03-12T06:46:00.588Z,1010.17
2017-03-12T06:47:00.595Z,1010.17
2017-03-12T06:48:00.603Z,1010.16
2017-03-12T06:49:00.609Z,1010.17
2017-03-12T06:50:00.665Z,1010.12
2017-03-12T06:51:00.622Z,1010.14
2017-03-12T06:52:00.630Z,1010.15
2017-03-12T06:53:00.635Z,1010.13
2017-03-12T06:54:00.641Z,1010.12
2017-03-12T06:55:00.647Z,1010.09
2017-03-12T06:56:00.654Z,1010.1
2017-03-12T06:57:00.659Z,1010.08
2017-03-12T06:58:00.717Z,1010.08
2017-03-12T06:59:00.675Z,1010.07
2017-03-12T07:00:00.678Z,1010.1
2017-03-12T07:01:00.685Z,1010.08
2017-03-12T07:02:00.690Z,1010.13
2017-03-12T07:03:00.698Z,1010.1
2017-03-12T07:04:00.705Z,1010.12
2017-03-12T07:05:00.712Z,1010.1
2017-03-12T07:06:00.719Z,1010.15
2017-03-12T07:07:00.725Z,1010.16
2017-03-12T07:08:00.732Z,1010.18
2017-03-12T07:09:00.737Z,1010.14
2017-03-12T07:10:00.750Z,1010.16
2017-03-12T07:11:00.751Z,1010.11
2017-03-12T07:12:00.806Z,1010.16
2017-03-12T07:13:00.764Z,1010.16
2017-03-12T07:14:02.323Z,1010.16
2017-03-12T07:15:00.827Z,1010.15
2017-03-12T07:16:00.783Z,1010.13
2017-03-12T07:17:00.789Z,1010.16
2017-03-12T07:18:00.796Z,1010.13
2017-03-12T07:19:00.801Z,1010.1
2017-03-12T07:20:00.811Z,1010.14
2017-03-12T07:21:00.818Z,1010.09
2017-03-12T07:22:00.821Z,1010.1
2017-03-12T07:23:00.828Z,1010.1
2017-03-12T07:24:00.835Z,1010.08
2017-03-12T07:25:00.847Z,1010.07
2017-03-12T07:26:00.899Z,1010.09
2017-03-12T07:27:00.910Z,1010.12
2017-03-12T07:28:00.863Z,1010.1
2017-03-12T07:29:00.919Z,1010.1
2017-03-12T07:30:00.925Z,1010.11
2017-03-12T07:31:00.881Z,1010.12
2017-03-12T07:32:00.888Z,1010.12
2017-03-12T07:33:00.894Z,1010.11
2017-03-12T07:34:00.950Z,1010.11
2017-03-12T07:35:00.908Z,1010.11
2017-03-12T07:36:00.966Z,1010.07
2017-03-12T07:37:00.920Z,1010.14
2017-03-12T07:38:00.978Z,1010.13
2017-03-12T07:39:01.736Z,1010.13
2017-03-12T07:40:00.942Z,1010.09
2017-03-12T07:41:00.946Z,1010.1
2017-03-12T07:42:01.003Z,1010.06
2017-03-12T07:43:00.962Z,1010.09
2017-03-12T07:45:01.025Z,1010.05
2017-03-12T07:46:00.981Z,1010.07
2017-03-12T07:47:00.988Z,1010.05
2017-03-12T07:48:01.144Z,1010.01
2017-03-12T07:49:01.000Z,1010.03
2017-03-12T07:50:01.007Z,1010
2017-03-12T07:51:01.015Z,1010.02
2017-03-12T07:52:01.020Z,1009.99
2017-03-12T07:53:01.033Z,1010
2017-03-12T07:54:01.034Z,1009.99
2017-03-12T07:55:01.091Z,1010.03
2017-03-12T07:56:01.047Z,1010
2017-03-12T07:57:01.055Z,1010
2017-03-12T07:58:01.061Z,1009.99
2017-03-12T07:59:01.067Z,1010.01
2017-03-12T08:00:01.078Z,1010.02
2017-03-12T08:01:01.082Z,1009.98
2017-03-12T08:02:01.089Z,1009.98
2017-03-12T08:03:01.095Z,1010
2017-03-12T08:04:01.753Z,1009.98
2017-03-12T08:05:01.108Z,1009.98
2017-03-12T08:06:01.115Z,1009.98
2017-03-12T08:07:01.121Z,1009.98
2017-03-12T08:08:01.179Z,1009.99
2017-03-12T08:09:01.187Z,1009.99
2017-03-12T08:10:01.191Z,1009.99
2017-03-12T08:11:01.198Z,1010.01
2017-03-12T08:12:01.205Z,1009.96
2017-03-12T08:13:01.213Z,1009.99
2017-03-12T08:14:01.218Z,1009.97
2017-03-12T08:15:01.176Z,1010.07
2017-03-12T08:16:01.232Z,1010.23
2017-03-12T08:17:01.189Z,1010.26
2017-03-12T08:18:01.947Z,1010.23
2017-03-12T08:19:01.254Z,1010.28
2017-03-12T08:20:01.262Z,1010.35
2017-03-12T08:21:01.219Z,1010.27
2017-03-12T08:22:01.276Z,1010.28
2017-03-12T08:23:01.236Z,1010.32
2017-03-12T08:24:01.243Z,1010.29
2017-03-12T08:25:01.251Z,1010.29
2017-03-12T08:26:01.310Z,1010.32
2017-03-12T08:27:01.721Z,1010.32
2017-03-12T08:28:01.278Z,1010.33
2017-03-12T08:29:01.287Z,1010.35
2017-03-12T08:30:01.347Z,1010.33
2017-03-12T08:31:01.356Z,1010.3
2017-03-12T08:32:01.313Z,1010.27
2017-03-12T08:33:01.374Z,1010.32
2017-03-12T08:34:01.383Z,1010.32
2017-03-12T08:35:01.341Z,1010.32
2017-03-12T08:36:01.401Z,1010.18
2017-03-12T08:37:01.361Z,1010.14
2017-03-12T08:38:01.370Z,1010.14
2017-03-12T08:39:01.429Z,1010.17
2017-03-12T08:40:01.440Z,1010.22
2017-03-12T08:41:01.398Z,1010.21
2017-03-12T08:42:01.459Z,1010.07
2017-03-12T08:43:01.417Z,1010
2017-03-12T08:44:02.628Z,1009.99
2017-03-12T08:45:01.487Z,1009.96
2017-03-12T08:46:01.445Z,1009.99
2017-03-12T08:47:01.453Z,1009.96
2017-03-12T08:48:01.463Z,1010.02
2017-03-12T08:49:01.470Z,1010.05
2017-03-12T08:50:01.529Z,1010.09
2017-03-12T08:51:01.489Z,1010.14
2017-03-12T08:52:01.549Z,1010.15
2017-03-12T08:53:01.508Z,1010.1
2017-03-12T08:54:01.516Z,1010.02
2017-03-12T08:55:01.524Z,1009.92
2017-03-12T08:56:01.584Z,1009.9
2017-03-12T08:57:01.591Z,1009.83
2017-03-12T08:58:01.551Z,1009.85
2017-03-12T08:59:01.560Z,1009.83
2017-03-12T09:00:01.618Z,1009.82
2017-03-12T09:01:01.625Z,1009.86
2017-03-12T09:02:01.584Z,1009.86
2017-03-12T09:03:01.643Z,1009.82
2017-03-12T09:04:01.600Z,1009.81
2017-03-12T09:05:01.660Z,1009.85
2017-03-12T09:06:01.617Z,1009.87
2017-03-12T09:07:01.625Z,1009.85
2017-03-12T09:08:01.683Z,1009.88
2017-03-12T09:09:01.640Z,1009.92
2017-03-12T09:10:01.648Z,1009.9
2017-03-12T09:11:01.656Z,1009.93
2017-03-12T09:12:01.663Z,1009.92
2017-03-12T09:13:01.723Z,1009.92
2017-03-12T09:14:01.729Z,1009.88
2017-03-12T09:15:01.739Z,1010
2017-03-12T09:16:01.693Z,1010.15
2017-03-12T09:17:01.703Z,1010.12
2017-03-12T09:18:01.713Z,1010.23
2017-03-12T09:19:01.719Z,1010.33
2017-03-12T09:20:01.727Z,1010.29
2017-03-12T09:21:01.786Z,1010.31
2017-03-12T09:22:01.745Z,1010.27
2017-03-12T09:23:01.753Z,1010.25
2017-03-12T09:24:01.762Z,1010.25
2017-03-12T09:25:01.772Z,1010.26
2017-03-12T09:26:01.830Z,1010.13
2017-03-12T09:27:01.788Z,1009.98
2017-03-12T09:28:01.845Z,1009.92
2017-03-12T09:29:01.802Z,1009.94
2017-03-12T09:30:01.811Z,1009.89
2017-03-12T09:31:01.870Z,1009.83
2017-03-12T09:32:01.878Z,1009.85
2017-03-12T09:33:01.886Z,1009.84
2017-03-12T09:34:01.843Z,1009.83
2017-03-12T09:35:01.850Z,1009.8
2017-03-12T09:36:01.860Z,1009.8
2017-03-12T09:37:01.867Z,1009.82
2017-03-12T09:38:01.875Z,1009.77
2017-03-12T09:39:01.881Z,1009.8
2017-03-12T09:40:01.940Z,1009.74
2017-03-12T09:41:01.896Z,1009.72
2017-03-12T09:42:01.905Z,1009.76
2017-03-12T09:43:01.962Z,1009.72
2017-03-12T09:44:04.573Z,1009.77
2017-03-12T09:45:01.976Z,1009.7
2017-03-12T09:46:01.984Z,1009.72
2017-03-12T09:47:01.993Z,1009.71
2017-03-12T09:48:02.026Z,1009.69
2017-03-12T09:49:02.006Z,1009.71
2017-03-12T09:50:01.963Z,1009.66
2017-03-12T09:51:01.969Z,1009.63
2017-03-12T09:52:02.040Z,1009.64
2017-03-12T09:53:01.985Z,1009.61
2017-03-12T09:54:02.060Z,1009.65
2017-03-12T09:55:02.054Z,1009.63
2017-03-12T09:56:02.002Z,1009.65
2017-03-12T09:57:02.013Z,1009.62
2017-03-12T09:58:02.018Z,1009.65
2017-03-12T09:59:02.038Z,1009.64
2017-03-12T10:00:02.047Z,1009.62
2017-03-12T10:01:02.052Z,1009.64
2017-03-12T10:02:02.052Z,1009.62
2017-03-12T10:03:02.116Z,1009.64
2017-03-12T10:04:02.123Z,1009.59
2017-03-12T10:05:02.132Z,1009.61
2017-03-12T10:06:02.073Z,1009.67
2017-03-12T10:07:02.087Z,1009.6
2017-03-12T10:08:02.152Z,1009.67
2017-03-12T10:09:02.159Z,1009.58
2017-03-12T10:10:02.099Z,1009.6
2017-03-12T10:11:02.112Z,1009.64
2017-03-12T10:12:02.119Z,1009.7
2017-03-12T10:13:02.132Z,1009.63
2017-03-12T10:15:02.197Z,1009.65
2017-03-12T10:16:02.190Z,1009.63
2017-03-12T10:17:02.196Z,1009.64
2017-03-12T10:18:02.190Z,1009.58
2017-03-12T10:19:02.159Z,1009.59
2017-03-12T10:20:02.165Z,1009.6
2017-03-12T10:21:02.235Z,1009.63
2017-03-12T10:22:02.178Z,1009.58
2017-03-12T10:23:02.234Z,1009.56
2017-03-12T10:24:02.242Z,1009.57
2017-03-12T10:25:02.198Z,1009.56
2017-03-12T10:26:02.203Z,1009.52
2017-03-12T10:27:02.261Z,1009.52
2017-03-12T10:28:02.230Z,1009.49
2017-03-12T10:29:02.222Z,1009.43
2017-03-12T10:30:02.279Z,1009.42
2017-03-12T10:31:02.234Z,1009.4
2017-03-12T10:32:02.292Z,1009.46
2017-03-12T10:33:02.297Z,1009.45
2017-03-12T10:34:02.254Z,1009.46
2017-03-12T10:35:02.312Z,1009.46
2017-03-12T10:36:02.317Z,1009.42
2017-03-12T10:37:02.286Z,1009.43
2017-03-12T10:38:02.329Z,1009.4
2017-03-12T10:39:02.336Z,1009.38
2017-03-12T10:40:02.341Z,1009.34
2017-03-12T10:41:02.311Z,1009.35
2017-03-12T10:42:02.306Z,1009.37
2017-03-12T10:43:02.310Z,1009.29
2017-03-12T10:44:02.366Z,1009.33
2017-03-12T10:45:02.377Z,1009.31
2017-03-12T10:46:02.329Z,1009.32
2017-03-12T10:47:02.385Z,1009.31
2017-03-12T10:48:02.342Z,1009.29
2017-03-12T10:49:02.347Z,1009.24
2017-03-12T10:50:02.352Z,1009.23
2017-03-12T10:51:02.360Z,1009.25
2017-03-12T10:52:02.366Z,1009.21
2017-03-12T10:53:02.372Z,1009.2
2017-03-12T10:54:02.428Z,1009.22
2017-03-12T10:55:02.384Z,1009.27
2017-03-12T10:56:02.395Z,1009.21
2017-03-12T10:57:02.448Z,1009.23
2017-03-12T10:58:02.402Z,1009.19
2017-03-12T10:59:02.409Z,1009.19
2017-03-12T11:00:02.416Z,1009.16
2017-03-12T11:01:02.472Z,1009.21
2017-03-12T11:02:02.428Z,1009.19
2017-03-12T11:03:02.483Z,1009.22
2017-03-12T11:04:02.490Z,1009.16
2017-03-12T11:05:02.447Z,1009.16
2017-03-12T11:06:02.503Z,1009.16
2017-03-12T11:07:02.458Z,1009.14
2017-03-12T11:08:02.466Z,1009.11
2017-03-12T11:09:02.472Z,1009.16
2017-03-12T11:10:02.476Z,1009.14
2017-03-12T11:11:02.482Z,1009.12
2017-03-12T11:12:02.489Z,1009.1
2017-03-12T11:13:02.495Z,1009.12
2017-03-12T11:14:02.501Z,1009.1
2017-03-12T11:15:02.507Z,1009.12
2017-03-12T11:16:02.512Z,1009.13
2017-03-12T11:17:02.518Z,1009.05
2017-03-12T11:18:02.525Z,1009.1
2017-03-12T11:19:02.532Z,1009.1
2017-03-12T11:20:02.585Z,1009.05
2017-03-12T11:21:02.543Z,1009.11
2017-03-12T11:22:02.550Z,1009.09
2017-03-12T11:23:02.605Z,1009.14
2017-03-12T11:24:02.610Z,1009.1
2017-03-12T11:25:02.566Z,1009.06
2017-03-12T11:26:02.624Z,1009.03
2017-03-12T11:27:02.578Z,1009.08
2017-03-12T11:28:02.635Z,1009.02
2017-03-12T11:29:02.643Z,1009.01
2017-03-12T11:30:02.598Z,1009.1
2017-03-12T11:31:02.602Z,1009.04
2017-03-12T11:32:02.610Z,1009.05
2017-03-12T11:33:02.615Z,1009.07
2017-03-12T11:34:02.670Z,1009.05
2017-03-12T11:35:02.627Z,1009.05
2017-03-12T11:36:02.635Z,1009.04
2017-03-12T11:37:02.691Z,1009.03
2017-03-12T11:38:02.646Z,1008.99
2017-03-12T11:39:02.652Z,1008.97
2017-03-12T11:40:02.708Z,1008.98
2017-03-12T11:41:02.715Z,1008.97
2017-03-12T11:42:02.720Z,1008.96
2017-03-12T11:43:02.677Z,1008.99
2017-03-12T11:44:02.732Z,1008.93
2017-03-12T11:45:02.688Z,1008.95
2017-03-12T11:46:02.694Z,1008.93
2017-03-12T11:47:02.699Z,1008.92
2017-03-12T11:48:02.706Z,1008.95
2017-03-12T11:49:02.710Z,1008.94
2017-03-12T11:50:02.718Z,1008.91
2017-03-12T11:51:02.724Z,1008.89
2017-03-12T11:52:02.779Z,1008.91
2017-03-12T11:53:02.734Z,1008.94
2017-03-12T11:54:02.792Z,1008.95
2017-03-12T11:55:02.748Z,1008.94
2017-03-12T11:56:02.753Z,1008.91
2017-03-12T11:57:02.758Z,1008.93
2017-03-12T11:58:02.817Z,1008.97
2017-03-12T11:59:02.773Z,1008.94
2017-03-12T12:00:02.778Z,1008.93
2017-03-12T12:01:02.782Z,1008.95
2017-03-12T12:02:02.789Z,1008.92
2017-03-12T12:03:02.794Z,1008.92
2017-03-12T12:04:02.802Z,1008.91
2017-03-12T12:05:02.807Z,1008.92
2017-03-12T12:06:02.863Z,1008.94
2017-03-12T12:07:02.819Z,1008.89
2017-03-12T12:08:02.875Z,1008.91
2017-03-12T12:09:02.830Z,1008.9
2017-03-12T12:10:02.887Z,1008.84
2017-03-12T12:11:02.842Z,1008.85
2017-03-12T12:12:02.849Z,1008.83
2017-03-12T12:13:02.855Z,1008.85
2017-03-12T12:14:02.862Z,1008.89
2017-03-12T12:15:02.918Z,1008.83
2017-03-12T12:16:02.874Z,1008.88
2017-03-12T12:17:02.880Z,1008.85